Time;durP1;ratioP1;P1;durP2;ratioP2;P2;SDS_P1;SDS_P2;PMS_P1;PMS_P2;Temp;Humidity;BMP_temperature;BMP_pressure;BME280_temperature;BME280_humidity;BME280_pressure;Samples;Min_cycle;Max_cycle;Signal;HPM_P1;HPM_P2
2022/03/26 00:00:09;;;;;;;53.90;25.73;;;6.70;77.10;;;;;;5036980;28;20025;-67
2022/03/26 00:02:35;;;;;;;64.10;30.88;;;6.70;77.40;;;;;;5045617;28;20121;-67
2022/03/26 00:05:02;;;;;;;71.65;34.03;;;6.60;78.60;;;;;;5042621;28;20021;-67
2022/03/26 00:07:28;;;;;;;56.00;26.70;;;6.60;78.80;;;;;;5042503;28;20039;-67
2022/03/26 00:09:54;;;;;;;48.78;25.35;;;6.60;79.10;;;;;;5043177;28;20029;-68
2022/03/26 00:12:20;;;;;;;47.13;24.40;;;6.60;79.80;;;;;;5042664;28;20104;-68
2022/03/26 00:14:46;;;;;;;50.83;25.63;;;6.50;79.70;;;;;;5044239;28;20081;-67
2022/03/26 00:17:12;;;;;;;41.45;22.73;;;6.50;80.30;;;;;;5041852;28;20451;-67
2022/03/26 00:19:38;;;;;;;47.30;24.85;;;6.40;81.10;;;;;;5044952;28;20017;-66
2022/03/26 00:22:04;;;;;;;44.60;23.55;;;6.40;81.50;;;;;;5040889;28;20541;-67
2022/03/26 00:24:29;;;;;;;51.35;23.92;;;6.40;82.40;;;;;;5042214;28;20018;-68
2022/03/26 00:26:55;;;;;;;43.97;24.02;;;6.40;82.90;;;;;;5043304;28;20032;-68
2022/03/26 00:29:21;;;;;;;46.88;24.33;;;6.40;83.30;;;;;;5042628;28;20030;-68
2022/03/26 00:31:47;;;;;;;42.13;22.42;;;6.40;83.50;;;;;;5043355;28;20032;-68
2022/03/26 00:34:13;;;;;;;49.95;25.23;;;6.40;83.50;;;;;;5044293;28;20097;-67
2022/03/26 00:36:39;;;;;;;49.45;25.83;;;6.30;83.90;;;;;;5042635;28;20103;-67
2022/03/26 00:39:05;;;;;;;51.42;25.63;;;6.30;84.80;;;;;;5044563;28;20037;-67
2022/03/26 00:41:32;;;;;;;49.55;23.40;;;6.30;85.00;;;;;;5038467;28;20048;-67
2022/03/26 00:43:58;;;;;;;48.13;24.33;;;6.20;84.90;;;;;;5043769;28;20497;-67
2022/03/26 00:46:24;;;;;;;47.63;23.88;;;6.20;85.50;;;;;;5042791;28;20037;-67
2022/03/26 00:48:51;;;;;;;49.42;22.30;;;6.20;85.40;;;;;;5040241;28;20029;-67
2022/03/26 00:51:17;;;;;;;53.33;24.45;;;6.10;85.60;;;;;;5046133;28;20021;-67
2022/03/26 00:53:44;;;;;;;52.05;25.23;;;6.10;86.10;;;;;;5041784;28;20509;-67
2022/03/26 00:56:09;;;;;;;45.67;24.15;;;6.10;86.70;;;;;;5039013;28;20482;-68
2022/03/26 00:58:35;;;;;;;50.75;23.88;;;6.00;86.40;;;;;;5038696;28;20044;-68
2022/03/26 01:01:01;;;;;;;50.50;24.65;;;6.00;87.30;;;;;;5039493;28;20036;-67
2022/03/26 01:03:26;;;;;;;45.80;23.85;;;6.00;87.60;;;;;;5041441;28;20091;-67
2022/03/26 01:05:52;;;;;;;49.78;24.55;;;6.00;88.00;;;;;;5046487;28;20029;-67
2022/03/26 01:08:18;;;;;;;51.67;25.00;;;6.00;88.30;;;;;;5040435;28;20477;-67
2022/03/26 01:10:44;;;;;;;44.53;22.75;;;6.00;88.80;;;;;;5044600;28;20137;-67
2022/03/26 01:13:11;;;;;;;46.72;23.15;;;5.90;88.90;;;;;;5040156;28;20025;-67
2022/03/26 01:15:37;;;;;;;48.45;24.30;;;6.00;90.10;;;;;;5040264;28;20075;-67
2022/03/26 01:18:03;;;;;;;50.13;24.77;;;5.90;90.40;;;;;;5041679;28;20029;-66
2022/03/26 01:20:29;;;;;;;47.95;23.23;;;5.90;90.40;;;;;;5035205;28;20021;-67
2022/03/26 01:22:55;;;;;;;52.72;24.40;;;5.80;90.70;;;;;;5039007;28;20087;-67
2022/03/26 01:25:21;;;;;;;48.30;24.75;;;5.80;90.90;;;;;;5038099;28;20063;-67
2022/03/26 01:27:47;;;;;;;47.15;24.00;;;5.80;91.30;;;;;;5040821;28;20037;-67
2022/03/26 01:30:13;;;;;;;47.00;22.85;;;5.80;91.40;;;;;;5037181;28;20390;-67
2022/03/26 01:32:39;;;;;;;46.65;23.77;;;5.80;91.80;;;;;;5037528;28;20151;-67
2022/03/26 01:35:05;;;;;;;48.78;23.90;;;5.70;91.90;;;;;;5036670;28;20049;-67
2022/03/26 01:37:31;;;;;;;48.50;24.30;;;5.60;91.90;;;;;;5039321;28;20041;-67
2022/03/26 01:39:57;;;;;;;44.80;23.52;;;5.60;92.30;;;;;;5043350;28;20059;-68
2022/03/26 01:42:23;;;;;;;46.97;24.05;;;5.60;92.30;;;;;;5042242;28;20619;-67
2022/03/26 01:44:49;;;;;;;44.97;23.17;;;5.60;92.50;;;;;;5038518;28;20049;-67
2022/03/26 01:47:15;;;;;;;43.83;22.55;;;5.60;92.50;;;;;;5037270;28;20037;-68
2022/03/26 01:49:40;;;;;;;46.75;23.38;;;5.60;92.40;;;;;;5037791;28;20473;-66
2022/03/26 01:52:09;;;;;;;53.15;23.73;;;5.50;92.70;;;;;;5038718;28;20033;-67
2022/03/26 01:54:35;;;;;;;47.05;22.60;;;5.60;92.90;;;;;;5040800;28;20463;-66
2022/03/26 01:57:01;;;;;;;45.47;22.80;;;5.50;93.10;;;;;;5041083;28;20115;-67
2022/03/26 01:59:28;;;;;;;48.28;23.08;;;5.50;93.60;;;;;;5040158;28;20029;-67
2022/03/26 02:01:54;;;;;;;48.97;23.35;;;5.50;93.60;;;;;;5039266;28;20048;-68
2022/03/26 02:04:19;;;;;;;46.53;22.33;;;5.50;93.60;;;;;;5038066;28;20449;-68
2022/03/26 02:06:46;;;;;;;53.47;25.85;;;5.50;93.80;;;;;;5039986;28;20112;-67
2022/03/26 02:09:13;;;;;;;50.88;23.27;;;5.40;93.90;;;;;;5039383;28;20409;-67
2022/03/26 02:11:42;;;;;;;49.00;22.88;;;5.40;94.20;;;;;;5042052;28;20060;-67
2022/03/26 02:14:09;;;;;;;47.55;23.38;;;5.40;94.10;;;;;;5043715;28;20082;-67
2022/03/26 02:16:36;;;;;;;49.72;25.23;;;5.40;94.30;;;;;;5043139;28;20083;-67
2022/03/26 02:19:04;;;;;;;49.15;23.98;;;5.30;94.40;;;;;;5043741;28;20125;-67
2022/03/26 02:21:30;;;;;;;50.42;23.85;;;5.30;94.60;;;;;;5052006;28;20025;-67
2022/03/26 02:23:56;;;;;;;48.60;22.98;;;5.30;94.90;;;;;;5050704;28;20022;-67
2022/03/26 02:26:26;;;;;;;50.15;23.85;;;5.20;95.20;;;;;;5015824;28;20025;-66
2022/03/26 02:28:56;;;;;;;54.03;24.48;;;5.20;95.40;;;;;;5034679;28;20022;-66
2022/03/26 02:31:22;;;;;;;48.15;23.50;;;5.10;95.40;;;;;;5013783;28;20490;-66
2022/03/26 02:33:49;;;;;;;46.85;22.88;;;5.10;95.50;;;;;;5026925;28;20033;-66
2022/03/26 02:36:14;;;;;;;50.08;23.58;;;5.10;95.60;;;;;;5032301;28;20034;-66
2022/03/26 02:38:41;;;;;;;47.45;23.55;;;5.00;95.90;;;;;;5030914;28;20021;-66
2022/03/26 02:41:07;;;;;;;45.92;23.13;;;5.00;96.20;;;;;;5030943;28;20025;-67
2022/03/26 02:43:33;;;;;;;46.78;22.45;;;5.00;96.30;;;;;;5030963;28;20022;-66
2022/03/26 02:45:59;;;;;;;51.22;23.30;;;5.00;96.30;;;;;;5029407;28;20390;-66
2022/03/26 02:48:25;;;;;;;47.83;23.15;;;4.90;96.50;;;;;;5032193;28;20401;-66
2022/03/26 02:50:50;;;;;;;48.58;24.17;;;4.90;96.50;;;;;;5029474;28;20037;-66
2022/03/26 02:53:16;;;;;;;50.42;24.50;;;4.90;97.00;;;;;;5032175;28;20037;-66
2022/03/26 02:55:43;;;;;;;45.83;23.15;;;4.90;96.70;;;;;;5032086;28;20029;-68
2022/03/26 02:58:09;;;;;;;45.72;23.30;;;4.80;97.00;;;;;;5032379;28;20120;-66
2022/03/26 03:00:36;;;;;;;48.88;23.90;;;4.80;97.20;;;;;;5031663;28;20024;-65
2022/03/26 03:03:02;;;;;;;48.38;22.52;;;4.80;97.20;;;;;;5031160;28;20029;-66
2022/03/26 03:05:27;;;;;;;45.55;22.88;;;4.80;97.30;;;;;;5031948;28;20108;-66
2022/03/26 03:07:54;;;;;;;47.30;24.38;;;4.80;97.40;;;;;;5025370;28;20041;-66
2022/03/26 03:10:20;;;;;;;43.85;22.65;;;4.80;97.40;;;;;;5028486;28;20052;-66
2022/03/26 03:12:47;;;;;;;51.70;23.48;;;4.80;97.50;;;;;;5026955;28;20146;-66
2022/03/26 03:15:17;;;;;;;51.30;23.45;;;4.80;97.70;;;;;;5023652;28;20029;-66
2022/03/26 03:17:42;;;;;;;48.67;24.33;;;4.80;97.90;;;;;;5027384;28;20128;-66
2022/03/26 03:20:09;;;;;;;48.55;23.67;;;4.80;97.80;;;;;;5026744;28;20092;-66
2022/03/26 03:22:36;;;;;;;46.47;23.33;;;4.70;97.70;;;;;;5023787;28;20030;-66
2022/03/26 03:25:04;;;;;;;43.55;22.00;;;4.70;97.90;;;;;;5030375;28;20049;-66
2022/03/26 03:27:30;;;;;;;47.70;23.30;;;4.70;98.00;;;;;;5024225;28;20494;-66
2022/03/26 03:29:56;;;;;;;43.80;22.05;;;4.70;97.90;;;;;;5025197;28;20037;-66
2022/03/26 03:32:21;;;;;;;47.42;23.48;;;4.70;98.00;;;;;;5025964;28;20025;-66
2022/03/26 03:34:47;;;;;;;48.45;23.08;;;4.70;98.10;;;;;;5028536;28;20108;-66
2022/03/26 03:37:13;;;;;;;48.20;23.70;;;4.70;98.00;;;;;;5020244;28;20034;-66
2022/03/26 03:39:38;;;;;;;48.25;22.65;;;4.60;98.10;;;;;;5031526;28;20394;-66
2022/03/26 03:42:04;;;;;;;44.80;22.70;;;4.60;98.20;;;;;;5029377;28;20029;-66
2022/03/26 03:44:30;;;;;;;42.25;21.70;;;4.60;98.30;;;;;;5029543;28;20117;-66
2022/03/26 03:46:57;;;;;;;49.00;23.05;;;4.60;98.20;;;;;;5031371;28;20022;-67
2022/03/26 03:49:22;;;;;;;50.60;23.27;;;4.50;98.30;;;;;;5031196;28;20026;-66
2022/03/26 03:51:48;;;;;;;45.60;22.52;;;4.50;98.50;;;;;;5031549;28;20022;-66
2022/03/26 03:54:14;;;;;;;42.15;21.73;;;4.50;98.30;;;;;;5028104;28;20025;-66
2022/03/26 03:56:40;;;;;;;47.22;22.42;;;4.50;98.20;;;;;;5028690;28;20044;-66
2022/03/26 03:59:06;;;;;;;47.70;23.63;;;4.50;98.40;;;;;;5024977;28;20096;-66
2022/03/26 04:01:31;;;;;;;42.25;20.75;;;4.40;98.30;;;;;;5029954;28;20060;-66
2022/03/26 04:03:57;;;;;;;52.40;24.65;;;4.40;98.60;;;;;;5025764;28;20056;-66
2022/03/26 04:06:23;;;;;;;43.67;21.55;;;4.40;99.00;;;;;;5020715;28;20041;-66
2022/03/26 04:08:49;;;;;;;52.50;24.25;;;4.30;99.10;;;;;;5031165;28;20044;-67
2022/03/26 04:11:14;;;;;;;47.55;23.33;;;4.30;99.40;;;;;;5020311;28;20025;-67
2022/03/26 04:13:40;;;;;;;46.75;23.33;;;4.30;99.80;;;;;;5026394;28;20030;-67
2022/03/26 04:16:06;;;;;;;45.13;23.23;;;4.30;99.80;;;;;;5027571;28;20033;-67
2022/03/26 04:18:32;;;;;;;46.63;23.20;;;4.30;99.50;;;;;;5026144;28;20033;-67
2022/03/26 04:20:58;;;;;;;45.45;21.85;;;4.20;99.50;;;;;;5030579;28;20096;-66
2022/03/26 04:23:24;;;;;;;44.55;21.67;;;4.20;99.90;;;;;;5034055;28;20091;-66
2022/03/26 04:25:50;;;;;;;49.20;22.38;;;4.20;99.90;;;;;;5030735;28;20536;-65
2022/03/26 04:28:16;;;;;;;50.40;23.27;;;4.10;99.80;;;;;;5031764;28;20029;-66
2022/03/26 04:30:42;;;;;;;47.30;23.17;;;4.10;99.90;;;;;;5031941;28;20034;-66
2022/03/26 04:33:08;;;;;;;49.38;22.92;;;4.10;99.90;;;;;;5030619;28;20032;-65
2022/03/26 04:35:34;;;;;;;50.75;24.38;;;4.10;99.90;;;;;;5032053;28;20029;-66
2022/03/26 04:38:01;;;;;;;45.20;22.13;;;4.00;99.90;;;;;;5034110;28;20025;-67
2022/03/26 04:40:27;;;;;;;49.60;22.35;;;3.90;99.90;;;;;;5032439;28;20088;-66
2022/03/26 04:42:53;;;;;;;48.75;23.10;;;3.90;99.90;;;;;;5025200;28;20049;-66
2022/03/26 04:45:19;;;;;;;47.10;22.27;;;3.90;99.90;;;;;;5031443;28;20060;-67
2022/03/26 04:47:45;;;;;;;50.78;22.75;;;3.80;99.90;;;;;;5033819;28;20030;-66
2022/03/26 04:50:11;;;;;;;49.10;23.23;;;3.90;99.90;;;;;;5029276;28;20029;-66
2022/03/26 04:52:37;;;;;;;51.85;22.98;;;3.80;99.90;;;;;;5027569;28;20101;-67
2022/03/26 04:55:04;;;;;;;52.33;23.75;;;3.80;99.90;;;;;;5031106;28;20108;-67
2022/03/26 04:57:31;;;;;;;46.78;23.40;;;3.80;99.90;;;;;;5022728;28;20030;-66
2022/03/26 04:59:57;;;;;;;53.70;23.30;;;3.70;99.90;;;;;;5026454;28;20013;-66
2022/03/26 05:02:23;;;;;;;44.40;22.90;;;3.70;99.90;;;;;;5031353;28;20026;-66
2022/03/26 05:04:49;;;;;;;44.75;22.05;;;3.70;99.90;;;;;;5033825;28;20025;-66
2022/03/26 05:09:59;;;;;;;50.90;23.42;;;3.60;99.90;;;;;;5030271;28;20032;-67
2022/03/26 05:12:25;;;;;;;49.80;24.38;;;3.50;99.90;;;;;;5030539;28;20029;-67
2022/03/26 05:14:50;;;;;;;46.10;22.55;;;3.50;99.90;;;;;;5033743;28;20020;-67
2022/03/26 05:17:16;;;;;;;45.92;21.45;;;3.50;99.90;;;;;;5029893;28;20105;-67
2022/03/26 05:19:42;;;;;;;53.38;25.05;;;3.50;99.90;;;;;;5033442;28;20021;-68
2022/03/26 05:22:07;;;;;;;49.92;22.75;;;3.50;99.90;;;;;;5033180;28;20017;-67
2022/03/26 05:24:36;;;;;;;48.38;23.25;;;3.50;99.90;;;;;;5033200;28;20025;-65
2022/03/26 05:27:02;;;;;;;47.20;22.95;;;3.50;99.90;;;;;;5030884;28;20451;-67
2022/03/26 05:29:29;;;;;;;53.25;23.92;;;3.50;99.90;;;;;;5029831;28;20022;-67
2022/03/26 05:31:55;;;;;;;49.10;22.88;;;3.50;99.90;;;;;;5032137;28;20390;-68
2022/03/26 05:34:20;;;;;;;45.85;23.40;;;3.50;99.90;;;;;;5029764;28;20083;-67
2022/03/26 05:36:46;;;;;;;48.35;24.45;;;3.50;99.90;;;;;;5026242;28;20022;-66
2022/03/26 05:39:11;;;;;;;45.63;23.23;;;3.50;99.90;;;;;;5034714;28;20406;-67
2022/03/26 05:41:37;;;;;;;44.33;23.60;;;3.50;99.90;;;;;;5031769;28;20033;-67
2022/03/26 05:44:03;;;;;;;48.45;23.30;;;3.50;99.90;;;;;;5029907;28;20379;-67
2022/03/26 05:46:28;;;;;;;56.42;25.00;;;3.60;99.90;;;;;;5028034;28;20025;-66
2022/03/26 05:48:54;;;;;;;47.92;24.92;;;3.60;99.90;;;;;;5037503;28;20030;-67
2022/03/26 05:51:20;;;;;;;44.88;23.20;;;3.60;99.90;;;;;;5032948;28;20025;-67
2022/03/26 05:53:45;;;;;;;52.78;25.58;;;3.70;99.90;;;;;;5031843;28;20389;-67
2022/03/26 05:56:11;;;;;;;52.40;22.92;;;3.70;99.90;;;;;;5033014;28;20049;-67
2022/03/26 05:58:36;;;;;;;49.05;23.80;;;3.80;99.90;;;;;;5029117;28;20029;-67
2022/03/26 06:01:02;;;;;;;56.35;23.90;;;3.80;99.90;;;;;;5031647;28;20032;-67
2022/03/26 06:03:28;;;;;;;49.35;26.10;;;3.90;99.90;;;;;;5032682;28;20032;-67
2022/03/26 06:05:54;;;;;;;48.40;23.42;;;4.00;99.90;;;;;;5030079;28;20029;-66
2022/03/26 06:08:19;;;;;;;50.83;24.70;;;4.00;99.90;;;;;;5023034;28;20022;-67
2022/03/26 06:10:45;;;;;;;49.28;23.73;;;4.10;99.90;;;;;;5025781;28;20027;-67
2022/03/26 06:13:11;;;;;;;50.13;23.52;;;4.10;99.90;;;;;;5030428;28;20541;-67
2022/03/26 06:15:37;;;;;;;55.25;24.15;;;4.10;99.90;;;;;;5036439;28;20018;-67
2022/03/26 06:18:03;;;;;;;51.72;24.15;;;4.20;99.90;;;;;;5037260;28;20025;-67
2022/03/26 06:20:29;;;;;;;51.60;23.35;;;4.30;99.90;;;;;;5030671;28;20415;-66
2022/03/26 06:22:55;;;;;;;46.30;24.02;;;4.30;99.90;;;;;;5033338;28;20105;-67
2022/03/26 06:25:21;;;;;;;56.45;25.67;;;4.40;99.90;;;;;;5029914;28;20105;-67
2022/03/26 06:27:47;;;;;;;52.08;26.13;;;4.50;99.90;;;;;;5025104;28;20409;-67
2022/03/26 06:30:13;;;;;;;48.85;25.52;;;4.60;99.90;;;;;;5025832;28;20068;-67
2022/03/26 06:32:40;;;;;;;51.95;25.60;;;4.60;99.90;;;;;;5026798;28;20108;-67
2022/03/26 06:35:07;;;;;;;51.20;24.85;;;4.70;99.90;;;;;;5030600;28;20448;-67
2022/03/26 06:37:33;;;;;;;54.90;26.90;;;4.80;99.90;;;;;;5028358;28;20394;-67
2022/03/26 06:39:58;;;;;;;52.42;26.90;;;4.80;99.90;;;;;;5028685;28;20025;-67
2022/03/26 06:42:25;;;;;;;52.53;27.35;;;4.90;99.90;;;;;;5028020;28;20029;-67
2022/03/26 06:44:52;;;;;;;58.95;28.58;;;5.00;99.90;;;;;;5026051;28;20028;-67
2022/03/26 06:47:17;;;;;;;56.75;26.17;;;5.10;99.90;;;;;;5031829;28;20025;-67
2022/03/26 06:49:43;;;;;;;53.20;27.25;;;5.10;99.90;;;;;;5030555;28;20040;-67
2022/03/26 06:52:09;;;;;;;52.35;27.52;;;5.10;99.90;;;;;;5031936;28;20096;-68
2022/03/26 06:54:34;;;;;;;50.25;26.60;;;5.30;99.90;;;;;;5030657;28;20056;-68
2022/03/26 06:57:00;;;;;;;56.97;27.02;;;5.30;99.90;;;;;;5027856;28;20025;-67
2022/03/26 06:59:26;;;;;;;54.08;25.77;;;5.30;99.70;;;;;;5031045;28;20100;-67
2022/03/26 07:01:52;;;;;;;53.50;27.85;;;5.40;99.20;;;;;;5031713;28;20014;-67
2022/03/26 07:04:17;;;;;;;56.28;27.02;;;5.40;99.20;;;;;;5031533;28;20025;-66
2022/03/26 07:06:43;;;;;;;55.17;28.13;;;5.40;98.80;;;;;;5031701;28;20030;-67
2022/03/26 07:09:09;;;;;;;55.50;28.83;;;5.40;98.60;;;;;;5026932;28;20026;-66
2022/03/26 07:11:35;;;;;;;56.33;27.17;;;5.40;98.60;;;;;;5027025;28;20029;-66
2022/03/26 07:14:01;;;;;;;57.70;26.92;;;5.50;98.40;;;;;;5026139;28;20033;-67
2022/03/26 07:16:26;;;;;;;53.28;27.05;;;5.50;98.20;;;;;;5029210;28;20026;-67
2022/03/26 07:18:52;;;;;;;54.85;26.95;;;5.60;98.00;;;;;;5029935;28;20394;-67
2022/03/26 07:21:18;;;;;;;54.47;26.40;;;5.60;98.10;;;;;;5032084;28;20471;-66
2022/03/26 07:23:43;;;;;;;54.17;28.05;;;5.80;98.10;;;;;;5030081;28;20029;-67
2022/03/26 07:26:09;;;;;;;58.63;28.17;;;5.90;97.90;;;;;;5029175;28;20018;-66
2022/03/26 07:28:34;;;;;;;59.85;28.48;;;5.90;97.60;;;;;;5028885;28;20072;-67
2022/03/26 07:31:00;;;;;;;61.15;28.40;;;6.00;97.40;;;;;;5031925;28;20040;-67
2022/03/26 07:33:27;;;;;;;53.60;27.60;;;6.10;97.10;;;;;;5031870;28;20026;-67
2022/03/26 07:35:53;;;;;;;57.15;28.10;;;6.20;97.00;;;;;;5025520;28;20026;-67
2022/03/26 07:38:18;;;;;;;55.13;26.98;;;6.30;96.70;;;;;;5027365;28;20040;-67
2022/03/26 07:40:44;;;;;;;55.33;27.58;;;6.40;96.20;;;;;;5024003;28;20486;-69
2022/03/26 07:43:10;;;;;;;52.80;26.40;;;6.50;96.00;;;;;;5022350;28;20026;-67
2022/03/26 07:45:36;;;;;;;55.17;26.80;;;6.60;95.80;;;;;;5029586;28;20151;-66
2022/03/26 07:48:02;;;;;;;51.92;26.30;;;6.60;95.40;;;;;;5021102;28;20029;-67
2022/03/26 07:50:28;;;;;;;54.80;26.50;;;6.70;95.30;;;;;;5030511;28;20441;-67
2022/03/26 07:52:53;;;;;;;49.42;25.23;;;6.80;94.80;;;;;;5022646;28;20116;-67
2022/03/26 07:55:20;;;;;;;51.58;27.67;;;6.90;94.70;;;;;;5032007;28;20033;-67
2022/03/26 07:57:46;;;;;;;54.97;25.88;;;7.10;94.50;;;;;;5034619;28;20026;-68
2022/03/26 08:00:12;;;;;;;51.55;25.95;;;7.20;94.20;;;;;;5035543;28;20099;-68
2022/03/26 08:02:38;;;;;;;50.47;25.63;;;7.20;93.50;;;;;;5035781;28;20018;-67
2022/03/26 08:05:04;;;;;;;52.38;26.10;;;7.30;93.50;;;;;;5031015;28;20101;-68
2022/03/26 08:07:30;;;;;;;53.25;24.95;;;7.30;93.10;;;;;;5060076;28;20033;-67
2022/03/26 08:09:56;;;;;;;50.08;25.00;;;7.50;93.10;;;;;;5048217;28;20053;-67
2022/03/26 08:12:21;;;;;;;49.03;26.15;;;7.60;92.30;;;;;;5049420;28;20053;-68
2022/03/26 08:14:48;;;;;;;49.15;24.95;;;7.70;92.30;;;;;;5054651;28;20052;-67
2022/03/26 08:17:14;;;;;;;56.85;25.52;;;7.80;92.30;;;;;;5056121;28;20021;-67
2022/03/26 08:19:40;;;;;;;48.88;25.58;;;7.90;92.10;;;;;;5049091;28;20040;-69
2022/03/26 08:22:05;;;;;;;51.78;26.48;;;8.00;92.00;;;;;;5049702;28;20028;-68
2022/03/26 08:24:32;;;;;;;58.53;27.17;;;8.10;91.60;;;;;;5039953;28;20032;-67
2022/03/26 08:26:58;;;;;;;48.03;24.95;;;8.20;91.30;;;;;;5053311;28;20028;-67
2022/03/26 08:29:24;;;;;;;45.47;24.45;;;8.30;91.00;;;;;;5049817;28;20033;-67
2022/03/26 08:31:50;;;;;;;51.08;25.15;;;8.40;90.50;;;;;;5053785;28;20155;-67
2022/03/26 08:34:18;;;;;;;50.20;26.88;;;8.60;90.50;;;;;;5051264;28;20021;-67
2022/03/26 08:36:44;;;;;;;49.05;24.83;;;8.70;90.30;;;;;;5050844;28;20028;-67
2022/03/26 08:39:10;;;;;;;51.92;26.42;;;8.70;88.60;;;;;;5052746;28;20492;-67
2022/03/26 08:41:35;;;;;;;45.10;23.90;;;8.80;89.00;;;;;;5053901;28;20021;-67
2022/03/26 08:44:01;;;;;;;51.03;26.23;;;8.90;88.40;;;;;;5057947;28;20029;-67
2022/03/26 08:46:27;;;;;;;47.25;24.20;;;9.00;87.40;;;;;;5052366;28;20378;-67
2022/03/26 08:48:52;;;;;;;49.28;25.38;;;9.10;87.30;;;;;;5054746;28;20537;-67
2022/03/26 08:51:19;;;;;;;47.83;24.90;;;9.10;87.30;;;;;;5051481;28;20540;-67
2022/03/26 08:53:44;;;;;;;49.63;26.02;;;9.10;87.40;;;;;;5053661;28;20059;-67
2022/03/26 08:56:11;;;;;;;49.40;25.20;;;9.20;88.10;;;;;;5055890;28;20034;-67
2022/03/26 08:58:37;;;;;;;55.75;26.48;;;9.30;88.50;;;;;;5054784;28;20470;-67
2022/03/26 09:01:03;;;;;;;47.03;24.45;;;9.40;87.80;;;;;;5050259;28;20014;-68
2022/03/26 09:03:29;;;;;;;51.20;26.55;;;9.50;87.60;;;;;;5052312;28;20025;-67
2022/03/26 09:05:56;;;;;;;48.00;26.27;;;9.50;87.10;;;;;;5049241;28;20528;-67
2022/03/26 09:08:22;;;;;;;51.10;26.27;;;9.70;86.80;;;;;;5055775;28;20099;-67
2022/03/26 09:10:47;;;;;;;59.00;26.73;;;9.70;86.60;;;;;;5052139;28;20048;-68
2022/03/26 09:13:13;;;;;;;51.10;25.80;;;9.70;86.50;;;;;;5053955;28;20497;-67
2022/03/26 09:15:39;;;;;;;47.35;26.92;;;9.90;86.40;;;;;;5053834;28;20107;-67
2022/03/26 09:18:06;;;;;;;49.40;26.33;;;10.00;85.60;;;;;;5044573;28;20243;-67
2022/03/26 09:20:32;;;;;;;51.00;25.77;;;10.00;85.40;;;;;;5053698;28;20394;-67
2022/03/26 09:22:58;;;;;;;54.65;27.58;;;10.10;85.80;;;;;;5045092;28;20451;-67
2022/03/26 09:25:24;;;;;;;52.65;26.98;;;10.20;85.20;;;;;;5052574;28;20052;-67
2022/03/26 09:27:50;;;;;;;45.53;25.83;;;10.40;84.30;;;;;;5050781;28;20099;-67
2022/03/26 09:30:17;;;;;;;52.70;27.33;;;10.50;83.90;;;;;;5052306;28;20592;-67
2022/03/26 09:32:46;;;;;;;54.05;25.80;;;10.50;83.40;;;;;;5051438;28;20025;-67
2022/03/26 09:35:13;;;;;;;50.53;26.25;;;10.60;83.20;;;;;;5053091;28;20044;-67
2022/03/26 09:37:40;;;;;;;50.83;26.65;;;10.80;83.20;;;;;;5052985;28;20064;-67
2022/03/26 09:40:07;;;;;;;47.17;24.27;;;11.00;82.60;;;;;;5044734;28;20013;-68
2022/03/26 09:42:34;;;;;;;48.63;25.58;;;11.10;81.30;;;;;;5054379;28;20036;-68
2022/03/26 09:44:59;;;;;;;49.47;25.08;;;11.30;80.30;;;;;;5050947;28;20028;-68
2022/03/26 09:47:25;;;;;;;50.05;24.63;;;11.30;78.60;;;;;;5050430;28;20025;-68
2022/03/26 09:49:51;;;;;;;49.78;24.75;;;11.50;77.10;;;;;;5050435;28;20028;-67
2022/03/26 09:52:17;;;;;;;55.38;24.70;;;11.60;76.90;;;;;;5050797;28;20027;-68
2022/03/26 09:54:43;;;;;;;47.97;24.45;;;11.70;76.40;;;;;;5044661;28;20025;-68
2022/03/26 09:57:09;;;;;;;54.15;25.90;;;11.90;76.00;;;;;;5046403;28;20079;-67
2022/03/26 09:59:36;;;;;;;57.50;25.23;;;12.00;75.70;;;;;;5049870;28;20104;-68
2022/03/26 10:02:02;;;;;;;51.50;25.38;;;12.10;75.60;;;;;;5041874;28;20029;-68
2022/03/26 10:04:39;;;;;;;43.28;23.30;;;12.30;75.10;;;;;;5052299;28;20021;-67
2022/03/26 10:07:05;;;;;;;47.00;25.23;;;12.40;74.00;;;;;;5051753;28;20033;-67
2022/03/26 10:09:37;;;;;;;45.40;23.90;;;12.60;73.40;;;;;;5053007;28;20458;-68
2022/03/26 10:12:04;;;;;;;55.85;25.65;;;12.80;72.20;;;;;;5052628;28;20025;-67
2022/03/26 10:14:57;;;;;;;47.20;25.77;;;12.90;71.10;;;;;;5052683;28;20025;-67
2022/03/26 10:17:29;;;;;;;49.70;26.38;;;13.20;69.90;;;;;;5047651;28;20033;-68
2022/03/26 10:20:00;;;;;;;50.60;26.85;;;13.40;68.70;;;;;;5038531;28;20516;-68
2022/03/26 10:22:40;;;;;;;50.30;26.30;;;13.50;67.60;;;;;;5052485;28;20031;-68
2022/03/26 10:25:05;;;;;;;54.90;26.98;;;13.60;67.10;;;;;;5052603;28;20195;-68
2022/03/26 10:27:36;;;;;;;46.33;25.17;;;13.70;66.80;;;;;;5052586;28;20031;-68
2022/03/26 10:30:03;;;;;;;50.42;24.95;;;13.80;66.00;;;;;;5051403;28;20558;-68
2022/03/26 10:32:45;;;;;;;58.45;25.73;;;13.90;65.50;;;;;;5052524;28;20078;-68
2022/03/26 10:35:16;;;;;;;50.92;26.50;;;14.00;64.80;;;;;;5048681;28;20060;-68
2022/03/26 10:37:53;;;;;;;53.67;26.65;;;14.20;64.40;;;;;;5050761;28;20040;-68
2022/03/26 10:40:35;;;;;;;58.00;26.67;;;14.20;64.20;;;;;;5052410;28;20052;-69
2022/03/26 10:43:05;;;;;;;53.97;26.63;;;14.30;63.20;;;;;;5052158;28;20096;-69
2022/03/26 10:45:34;;;;;;;49.90;25.90;;;14.50;62.30;;;;;;5050977;28;20469;-68
2022/03/26 10:48:05;;;;;;;51.80;27.35;;;14.60;61.70;;;;;;5052381;28;20618;-69
2022/03/26 10:50:34;;;;;;;52.50;25.55;;;14.60;61.10;;;;;;5050465;28;20398;-68
2022/03/26 10:53:10;;;;;;;51.03;26.20;;;14.80;60.20;;;;;;5039898;28;20025;-69
2022/03/26 10:55:43;;;;;;;47.20;25.30;;;14.80;59.60;;;;;;5024938;28;20135;-69
2022/03/26 10:58:09;;;;;;;48.33;25.23;;;14.80;59.90;;;;;;5052111;28;20025;-69
2022/03/26 11:00:35;;;;;;;50.17;26.10;;;14.90;59.60;;;;;;5051273;28;20319;-69
2022/03/26 11:03:01;;;;;;;51.17;25.80;;;15.00;57.90;;;;;;5051505;28;20025;-69
2022/03/26 11:05:29;;;;;;;50.15;24.45;;;15.10;57.80;;;;;;5051401;28;20500;-68
2022/03/26 11:07:56;;;;;;;47.60;26.25;;;15.10;58.10;;;;;;5052415;28;20481;-68
2022/03/26 11:10:24;;;;;;;54.40;24.05;;;15.20;56.20;;;;;;5047777;28;20393;-68
2022/03/26 11:12:50;;;;;;;43.42;22.80;;;15.20;54.90;;;;;;5050083;28;20049;-69
2022/03/26 11:15:30;;;;;;;46.70;22.38;;;15.50;53.30;;;;;;5051456;28;20029;-68
2022/03/26 11:18:18;;;;;;;43.08;22.58;;;15.60;51.00;;;;;;5044408;28;20053;-69
2022/03/26 11:21:18;;;;;;;40.13;21.13;;;15.80;49.90;;;;;;5050661;28;20074;-69
2022/03/26 11:23:53;;;;;;;38.17;20.95;;;15.70;49.50;;;;;;5051570;28;20398;-68
2022/03/26 11:26:50;;;;;;;42.97;22.08;;;15.80;49.50;;;;;;5051613;28;20024;-69
2022/03/26 11:29:31;;;;;;;38.22;20.13;;;15.80;49.00;;;;;;5051438;28;20029;-69
2022/03/26 11:32:28;;;;;;;38.00;20.20;;;15.80;49.10;;;;;;5042606;28;20436;-68
2022/03/26 11:35:03;;;;;;;42.72;22.25;;;15.80;48.70;;;;;;5043197;28;20124;-69
2022/03/26 11:37:29;;;;;;;48.40;22.17;;;15.80;48.30;;;;;;5053595;28;20061;-68
2022/03/26 11:39:57;;;;;;;39.75;21.83;;;16.00;47.50;;;;;;5055369;28;20550;-68
2022/03/26 11:42:48;;;;;;;37.58;19.77;;;16.00;47.40;;;;;;5054428;28;20029;-68
2022/03/26 11:50:47;;;;;;;36.45;20.90;;;16.30;46.20;;;;;;5052929;28;20040;-68
2022/03/26 11:53:34;;;;;;;40.40;19.95;;;16.30;46.30;;;;;;5052852;28;20436;-67
2022/03/26 11:56:03;;;;;;;41.00;21.05;;;16.20;46.50;;;;;;5042833;28;20103;-68
2022/03/26 11:58:29;;;;;;;37.08;19.83;;;16.30;45.80;;;;;;5054803;28;20056;-68
2022/03/26 12:01:01;;;;;;;37.17;20.52;;;16.30;45.90;;;;;;5053595;28;20057;-67
2022/03/26 12:03:30;;;;;;;38.10;21.30;;;16.20;45.90;;;;;;5051990;28;20052;-67
2022/03/26 12:08:58;;;;;;;36.53;20.08;;;16.50;45.70;;;;;;5055253;28;20074;-67
2022/03/26 12:11:28;;;;;;;36.80;19.63;;;16.50;45.30;;;;;;5049569;28;20041;-66
2022/03/26 12:14:01;;;;;;;38.38;19.90;;;16.50;44.70;;;;;;5050668;28;20070;-66
2022/03/26 12:16:49;;;;;;;36.35;20.88;;;16.50;45.10;;;;;;5046959;28;20082;-67
2022/03/26 12:19:41;;;;;;;40.13;20.83;;;16.50;45.40;;;;;;5046387;28;20040;-69
2022/03/26 12:22:31;;;;;;;37.25;20.38;;;16.60;44.50;;;;;;5054054;28;20436;-68
2022/03/26 12:25:02;;;;;;;39.92;20.73;;;16.50;44.80;;;;;;5054791;28;20029;-68
2022/03/26 12:27:28;;;;;;;34.63;19.58;;;16.60;44.80;;;;;;5054793;28;20025;-68
2022/03/26 12:29:55;;;;;;;36.50;19.67;;;16.70;43.90;;;;;;5051810;28;20471;-67
2022/03/26 12:32:22;;;;;;;33.53;18.58;;;16.70;43.30;;;;;;5052576;28;20536;-68
2022/03/26 12:35:09;;;;;;;37.50;20.55;;;16.80;43.00;;;;;;5053204;28;20025;-68
2022/03/26 12:37:35;;;;;;;34.78;19.15;;;16.80;43.50;;;;;;5047540;28;20063;-67
2022/03/26 12:40:04;;;;;;;36.47;20.20;;;16.90;43.50;;;;;;5046331;28;20070;-68
2022/03/26 12:42:30;;;;;;;38.03;20.98;;;16.80;43.20;;;;;;5052191;28;20517;-68
2022/03/26 12:44:55;;;;;;;33.85;19.48;;;16.80;43.30;;;;;;5048534;28;20028;-68